Time;durP1;ratioP1;P1;durP2;ratioP2;P2;SDS_P1;SDS_P2;PMS_P1;PMS_P2;Temp;Humidity;BMP_temperature;BMP_pressure;BME280_temperature;BME280_humidity;BME280_pressure;Samples;Min_cycle;Max_cycle;Signal;HPM_P1;HPM_P2
2021/01/04 00:01:10;;;;;;;2.00;1.00;;;4.90;99.90;;;;;;5015261;28;20176;-76
2021/01/04 00:04:05;;;;;;;0.43;0.43;;;4.90;99.90;;;;;;4997667;28;20168;-75
2021/01/04 00:06:54;;;;;;;0.63;0.63;;;5.00;99.90;;;;;;5015147;28;20168;-76
2021/01/04 00:09:47;;;;;;;1.38;1.30;;;5.10;99.90;;;;;;5015102;28;20196;-75
2021/01/04 00:12:42;;;;;;;0.43;0.43;;;5.10;99.90;;;;;;5014889;28;20180;-80
2021/01/04 00:15:23;;;;;;;1.00;0.98;;;5.00;99.90;;;;;;4961638;28;20565;-76
2021/01/04 00:18:14;;;;;;;1.02;0.93;;;4.80;99.90;;;;;;5014845;28;20168;-79
2021/01/04 00:20:50;;;;;;;0.45;0.45;;;4.80;99.90;;;;;;5015037;28;20643;-76
2021/01/04 00:23:24;;;;;;;0.50;0.50;;;5.00;99.90;;;;;;4997194;28;20172;-78
2021/01/04 00:26:19;;;;;;;0.40;0.40;;;5.00;99.90;;;;;;5014783;28;20192;-76
2021/01/04 00:28:46;;;;;;;0.35;0.35;;;5.00;99.90;;;;;;5014681;28;20195;-76
2021/01/04 00:31:22;;;;;;;0.70;0.70;;;4.80;99.90;;;;;;5014731;28;20196;-76
2021/01/04 00:33:52;;;;;;;1.63;1.33;;;4.90;99.90;;;;;;5014519;28;20255;-76
2021/01/04 00:36:31;;;;;;;0.45;0.45;;;4.80;99.90;;;;;;5014565;28;20188;-77
2021/01/04 00:39:08;;;;;;;1.58;1.17;;;4.80;99.90;;;;;;5014556;28;20219;-76
2021/01/04 00:41:58;;;;;;;0.90;0.88;;;4.90;99.90;;;;;;5014350;28;20232;-79
2021/01/04 00:44:41;;;;;;;0.40;0.40;;;4.90;99.90;;;;;;5014370;28;20199;-77
2021/01/04 00:47:24;;;;;;;1.35;1.10;;;5.00;99.90;;;;;;5014387;28;20263;-77
2021/01/04 00:49:58;;;;;;;1.10;1.10;;;5.10;99.90;;;;;;5014192;28;20237;-80
2021/01/04 00:52:44;;;;;;;1.05;1.02;;;5.00;99.90;;;;;;5014358;28;20176;-78
2021/01/04 00:55:26;;;;;;;1.88;1.58;;;5.10;99.90;;;;;;5014331;28;20188;-79
2021/01/04 00:58:21;;;;;;;2.17;1.17;;;5.00;99.90;;;;;;5013215;28;20195;-77
2021/01/04 01:00:58;;;;;;;0.20;0.20;;;5.00;99.90;;;;;;5014069;28;20161;-79
2021/01/04 01:03:57;;;;;;;0.20;0.20;;;5.00;99.90;;;;;;5014143;28;20516;-79
2021/01/04 01:06:24;;;;;;;0.68;0.68;;;5.10;99.90;;;;;;5013982;28;20161;-74
2021/01/04 01:08:54;;;;;;;0.93;0.93;;;5.10;99.90;;;;;;5014090;28;20157;-79
2021/01/04 01:11:51;;;;;;;0.60;0.60;;;5.10;99.90;;;;;;5015539;28;20187;-75
2021/01/04 01:14:39;;;;;;;1.10;0.63;;;5.00;99.90;;;;;;5014583;28;20192;-76
2021/01/04 01:17:38;;;;;;;0.38;0.38;;;5.00;99.90;;;;;;4996298;28;20255;-79
2021/01/04 01:20:09;;;;;;;0.88;0.77;;;4.90;99.90;;;;;;5014029;28;20172;-76
2021/01/04 01:22:38;;;;;;;0.60;0.60;;;4.90;99.90;;;;;;5013688;28;20197;-80
2021/01/04 01:25:26;;;;;;;1.08;1.08;;;4.90;99.90;;;;;;5013670;28;20250;-77
2021/01/04 01:28:30;;;;;;;0.88;0.88;;;4.70;99.90;;;;;;5013710;28;20172;-76
2021/01/04 01:31:45;;;;;;;0.30;0.30;;;4.50;99.90;;;;;;5013656;28;20640;-80
2021/01/04 01:34:18;;;;;;;0.30;0.30;;;4.60;99.90;;;;;;5013619;28;20198;-75
2021/01/04 01:37:30;;;;;;;4.43;1.38;;;4.70;99.90;;;;;;5013470;28;20580;-80
2021/01/04 01:40:34;;;;;;;0.20;0.20;;;4.60;99.90;;;;;;4998719;28;20714;-80
2021/01/04 01:43:11;;;;;;;0.75;0.75;;;4.40;99.90;;;;;;5013631;28;20192;-75
2021/01/04 01:46:13;;;;;;;0.50;0.50;;;4.30;99.90;;;;;;5013732;28;20188;-76
2021/01/04 01:49:17;;;;;;;0.20;0.20;;;4.40;99.90;;;;;;5013345;28;20172;-75
2021/01/04 01:52:09;;;;;;;0.70;0.70;;;4.20;99.90;;;;;;5012694;28;20204;-74
2021/01/04 01:55:09;;;;;;;1.55;1.00;;;4.40;99.90;;;;;;4985429;28;20283;-78
2021/01/04 01:58:00;;;;;;;0.77;0.77;;;4.60;99.90;;;;;;5013422;28;20157;-78
2021/01/04 02:00:36;;;;;;;0.45;0.45;;;4.50;99.90;;;;;;5008120;28;20201;-74
2021/01/04 02:03:04;;;;;;;2.22;1.85;;;4.50;99.90;;;;;;5033768;28;20190;-74
2021/01/04 02:06:06;;;;;;;0.63;0.63;;;4.50;99.90;;;;;;5028688;28;20271;-74
2021/01/04 02:08:39;;;;;;;1.73;0.93;;;4.50;99.90;;;;;;4995892;28;20180;-76
2021/01/04 02:11:14;;;;;;;0.70;0.70;;;4.60;99.90;;;;;;5017404;28;20168;-76
2021/01/04 02:14:02;;;;;;;1.80;1.70;;;4.50;99.90;;;;;;5017294;28;20172;-75
2021/01/04 02:16:35;;;;;;;1.92;0.75;;;4.50;99.90;;;;;;5017255;28;20156;-75
2021/01/04 02:19:41;;;;;;;0.75;0.40;;;4.30;99.90;;;;;;5017347;28;20187;-76
2021/01/04 02:22:57;;;;;;;0.30;0.30;;;4.20;99.90;;;;;;5017058;28;20200;-77
2021/01/04 02:25:27;;;;;;;2.83;0.95;;;4.20;99.90;;;;;;4983846;28;20227;-78
2021/01/04 02:27:59;;;;;;;0.30;0.30;;;4.30;99.90;;;;;;5017008;28;20632;-78
2021/01/04 02:30:24;;;;;;;0.88;0.55;;;4.40;99.90;;;;;;5017029;28;20165;-79
2021/01/04 02:32:50;;;;;;;0.77;0.77;;;4.50;99.90;;;;;;4999470;28;20171;-78
2021/01/04 02:35:15;;;;;;;2.95;0.75;;;4.50;99.90;;;;;;5016917;28;20192;-78
2021/01/04 02:37:41;;;;;;;7.32;1.85;;;4.60;99.90;;;;;;5016765;28;20707;-79
2021/01/04 02:40:10;;;;;;;0.40;0.40;;;4.50;99.90;;;;;;5017118;28;20231;-76
2021/01/04 02:42:38;;;;;;;0.75;0.75;;;4.40;99.90;;;;;;5016607;28;20275;-76
2021/01/04 02:45:08;;;;;;;0.98;0.65;;;4.40;99.90;;;;;;5016648;28;20271;-78
2021/01/04 02:47:58;;;;;;;0.52;0.52;;;4.20;99.90;;;;;;5016659;28;20165;-76
2021/01/04 02:50:28;;;;;;;0.50;0.50;;;4.30;99.90;;;;;;5016491;28;20231;-78
2021/01/04 02:53:06;;;;;;;0.70;0.70;;;4.40;99.90;;;;;;5016624;28;20185;-78
2021/01/04 02:55:52;;;;;;;1.52;1.42;;;4.30;99.90;;;;;;5016595;28;20200;-79
2021/01/04 02:58:37;;;;;;;0.98;0.98;;;4.30;99.90;;;;;;5016508;28;20168;-77
2021/01/04 03:01:13;;;;;;;0.50;0.50;;;4.40;99.90;;;;;;5016302;28;20679;-78
2021/01/04 03:03:41;;;;;;;0.43;0.43;;;4.30;99.90;;;;;;5016468;28;20176;-77
2021/01/04 03:06:13;;;;;;;0.50;0.50;;;4.20;99.90;;;;;;5016371;28;20190;-78
2021/01/04 03:08:40;;;;;;;0.20;0.20;;;4.30;99.90;;;;;;5016298;28;20200;-79
2021/01/04 03:11:09;;;;;;;0.93;0.57;;;4.30;99.90;;;;;;5016174;28;20160;-78
2021/01/04 03:13:54;;;;;;;1.08;0.98;;;4.10;99.90;;;;;;5016179;28;20172;-78
2021/01/04 03:16:31;;;;;;;1.27;1.27;;;4.10;99.90;;;;;;5016060;28;20655;-79
2021/01/04 03:19:12;;;;;;;0.50;0.50;;;4.00;99.90;;;;;;4998515;28;20187;-80
2021/01/04 03:21:40;;;;;;;0.68;0.68;;;4.00;99.90;;;;;;5014793;28;20586;-80
2021/01/04 03:24:10;;;;;;;0.98;0.98;;;3.80;99.90;;;;;;5015997;28;20192;-80
2021/01/04 03:26:45;;;;;;;0.35;0.35;;;3.90;99.90;;;;;;5015836;28;20161;-79
2021/01/04 03:29:10;;;;;;;1.58;1.45;;;4.00;99.90;;;;;;5015993;28;20149;-79
2021/01/04 03:31:36;;;;;;;0.43;0.43;;;4.20;99.90;;;;;;5015784;28;20226;-79
2021/01/04 03:34:02;;;;;;;0.47;0.47;;;4.20;99.90;;;;;;5015787;28;20173;-79
2021/01/04 03:36:27;;;;;;;0.25;0.25;;;4.30;99.90;;;;;;5015789;28;20161;-80
2021/01/04 03:38:53;;;;;;;0.88;0.82;;;4.20;99.90;;;;;;5015762;28;20164;-78
2021/01/04 03:41:18;;;;;;;0.77;0.77;;;4.30;99.90;;;;;;5015729;28;20198;-80
2021/01/04 03:43:44;;;;;;;1.38;1.30;;;4.30;99.90;;;;;;5015658;28;20191;-76
2021/01/04 03:46:10;;;;;;;0.57;0.57;;;4.20;99.90;;;;;;5015589;28;20542;-76
2021/01/04 03:48:37;;;;;;;1.05;1.05;;;4.10;99.90;;;;;;5015541;28;20165;-76
2021/01/04 03:51:03;;;;;;;1.83;0.80;;;4.20;99.90;;;;;;5015330;28;20299;-77
2021/01/04 03:53:29;;;;;;;0.80;0.80;;;4.00;99.90;;;;;;5015486;28;20176;-76
2021/01/04 03:55:55;;;;;;;0.30;0.30;;;3.90;99.90;;;;;;5015369;28;20185;-75
2021/01/04 03:58:20;;;;;;;0.45;0.45;;;3.90;99.90;;;;;;5015852;28;20175;-76
2021/01/04 04:00:46;;;;;;;0.65;0.65;;;3.80;99.90;;;;;;5015187;28;20219;-76
2021/01/04 04:03:12;;;;;;;0.43;0.43;;;4.00;99.90;;;;;;5015210;28;20550;-77
2021/01/04 04:05:37;;;;;;;1.30;1.23;;;4.10;99.90;;;;;;5015167;28;20196;-77
2021/01/04 04:08:04;;;;;;;0.32;0.32;;;4.20;99.90;;;;;;5015217;28;20251;-77
2021/01/04 04:10:29;;;;;;;0.38;0.38;;;4.20;99.90;;;;;;5015027;28;20167;-76
2021/01/04 04:12:55;;;;;;;0.28;0.28;;;4.30;99.90;;;;;;5015020;28;20516;-76
2021/01/04 04:15:22;;;;;;;1.35;0.93;;;4.20;99.90;;;;;;5014837;28;20199;-75
2021/01/04 04:17:48;;;;;;;0.35;0.35;;;4.20;99.90;;;;;;5014920;28;20168;-76
2021/01/04 04:20:19;;;;;;;1.88;1.00;;;4.10;99.90;;;;;;5014828;28;20188;-75
2021/01/04 04:22:49;;;;;;;1.05;1.00;;;4.10;99.90;;;;;;5014763;28;20200;-76
2021/01/04 04:25:16;;;;;;;0.25;0.25;;;4.10;99.90;;;;;;5014692;28;20189;-76
2021/01/04 04:27:41;;;;;;;0.68;0.68;;;4.20;99.90;;;;;;5014760;28;20169;-76
2021/01/04 04:30:10;;;;;;;0.35;0.35;;;4.20;99.90;;;;;;5014745;28;20183;-76
2021/01/04 04:32:39;;;;;;;0.45;0.38;;;4.30;99.90;;;;;;5013878;28;20187;-74
2021/01/04 04:35:06;;;;;;;0.77;0.77;;;4.30;99.90;;;;;;5019761;28;20583;-74
2021/01/04 04:37:32;;;;;;;1.10;0.77;;;4.30;99.90;;;;;;5019229;28;20199;-76
2021/01/04 04:39:57;;;;;;;1.20;1.20;;;4.20;99.90;;;;;;5027896;28;20160;-76
2021/01/04 04:42:23;;;;;;;0.20;0.20;;;4.10;99.90;;;;;;5014817;28;20279;-75
2021/01/04 04:44:55;;;;;;;0.73;0.73;;;4.10;99.90;;;;;;5014447;28;20220;-75
2021/01/04 04:47:47;;;;;;;0.85;0.85;;;4.10;99.90;;;;;;5014582;28;20636;-75
2021/01/04 04:50:31;;;;;;;1.17;1.17;;;4.10;99.90;;;;;;5014152;28;20228;-77
2021/01/04 04:53:06;;;;;;;0.65;0.65;;;4.10;99.90;;;;;;5014358;28;20604;-76
2021/01/04 04:56:00;;;;;;;0.75;0.75;;;4.10;99.90;;;;;;4996674;28;20192;-76
2021/01/04 04:58:58;;;;;;;0.40;0.40;;;3.90;99.90;;;;;;5014275;28;20188;-76
2021/01/04 05:01:33;;;;;;;0.57;0.57;;;4.10;99.90;;;;;;4996412;28;20672;-76
2021/01/04 05:04:20;;;;;;;8.30;1.85;;;4.10;99.90;;;;;;5014071;28;20160;-76
2021/01/04 05:07:04;;;;;;;0.50;0.50;;;4.10;99.90;;;;;;5014039;28;20204;-78
2021/01/04 05:09:44;;;;;;;1.30;1.20;;;4.00;99.90;;;;;;4996339;28;20161;-77
2021/01/04 05:12:25;;;;;;;0.40;0.40;;;3.80;99.90;;;;;;5013993;28;20164;-76
2021/01/04 05:14:56;;;;;;;0.75;0.75;;;3.70;99.90;;;;;;5013728;28;20195;-75
2021/01/04 05:17:43;;;;;;;1.05;1.05;;;3.80;99.90;;;;;;5013868;28;20255;-75
2021/01/04 05:20:12;;;;;;;0.52;0.52;;;3.90;99.90;;;;;;5014125;28;20180;-75
2021/01/04 05:22:40;;;;;;;1.40;1.40;;;3.80;99.90;;;;;;5013712;28;20211;-76
2021/01/04 05:25:18;;;;;;;0.65;0.65;;;3.80;99.90;;;;;;5013976;28;20185;-75
2021/01/04 05:28:02;;;;;;;2.28;0.77;;;3.80;99.90;;;;;;5014397;28;20223;-77
2021/01/04 05:31:00;;;;;;;0.40;0.40;;;3.90;99.90;;;;;;5013604;28;20164;-75
2021/01/04 05:33:58;;;;;;;1.42;1.33;;;3.80;99.90;;;;;;4996010;28;20173;-77
2021/01/04 05:36:33;;;;;;;0.50;0.50;;;4.00;99.90;;;;;;4995857;28;20165;-78
2021/01/04 05:39:22;;;;;;;0.50;0.50;;;4.00;99.90;;;;;;5013592;28;20168;-77
2021/01/04 05:42:24;;;;;;;5.88;1.10;;;3.90;99.90;;;;;;5013314;28;20208;-76
2021/01/04 05:45:13;;;;;;;0.50;0.50;;;4.00;99.90;;;;;;5012822;28;20188;-76
2021/01/04 05:47:44;;;;;;;0.75;0.75;;;3.90;99.90;;;;;;5013595;28;20199;-77
2021/01/04 05:50:28;;;;;;;0.85;0.85;;;3.80;99.90;;;;;;5013391;28;20228;-76
2021/01/04 05:52:55;;;;;;;0.20;0.20;;;3.90;99.90;;;;;;5013417;28;20231;-77
2021/01/04 05:55:21;;;;;;;0.50;0.50;;;3.80;99.90;;;;;;5013385;28;20184;-78
2021/01/04 05:57:49;;;;;;;0.60;0.60;;;3.70;99.90;;;;;;5013358;28;20192;-78
2021/01/04 06:00:33;;;;;;;0.68;0.68;;;3.80;99.90;;;;;;5013213;28;20279;-76
2021/01/04 06:03:20;;;;;;;0.80;0.63;;;3.80;99.90;;;;;;5013460;28;20196;-76
2021/01/04 06:05:48;;;;;;;0.40;0.40;;;3.80;99.90;;;;;;5013221;28;20196;-78
2021/01/04 06:08:26;;;;;;;0.85;0.85;;;3.90;99.90;;;;;;5013133;28;20161;-77
2021/01/04 06:11:13;;;;;;;0.65;0.65;;;3.80;99.90;;;;;;5013218;28;20256;-77
2021/01/04 06:13:41;;;;;;;0.20;0.20;;;3.70;99.90;;;;;;5013155;28;20192;-77
2021/01/04 06:16:11;;;;;;;0.65;0.65;;;3.70;99.90;;;;;;5012921;28;20193;-75
2021/01/04 06:18:46;;;;;;;0.77;0.77;;;3.80;99.90;;;;;;5011746;28;20164;-78
2021/01/04 06:21:39;;;;;;;1.35;1.20;;;3.80;99.90;;;;;;5013142;28;20194;-76
2021/01/04 06:24:05;;;;;;;1.77;1.67;;;3.70;99.90;;;;;;5013042;28;20200;-76
2021/01/04 06:26:31;;;;;;;0.93;0.93;;;3.80;99.90;;;;;;5012831;28;20156;-79
2021/01/04 06:29:03;;;;;;;0.88;0.77;;;3.70;99.90;;;;;;5012953;28;20165;-79
2021/01/04 06:31:38;;;;;;;1.45;1.35;;;3.80;99.90;;;;;;5012898;28;20187;-78
2021/01/04 06:34:32;;;;;;;1.17;1.15;;;3.90;99.90;;;;;;5012923;28;20187;-79
2021/01/04 06:37:15;;;;;;;1.63;0.95;;;3.70;99.90;;;;;;5012808;28;20496;-80
2021/01/04 06:39:41;;;;;;;1.63;1.52;;;3.80;99.90;;;;;;5012819;28;20632;-76
2021/01/04 06:42:16;;;;;;;1.48;1.48;;;3.80;99.90;;;;;;5013125;28;20204;-76
2021/01/04 06:44:57;;;;;;;0.40;0.40;;;3.80;99.90;;;;;;5014056;28;20188;-79
2021/01/04 06:48:01;;;;;;;1.55;1.45;;;3.80;99.90;;;;;;5012800;28;20165;-77
2021/01/04 06:50:37;;;;;;;5.30;1.48;;;4.00;99.90;;;;;;5012575;28;20267;-79
2021/01/04 06:53:38;;;;;;;0.20;0.20;;;4.10;99.90;;;;;;5012816;28;20160;-80
2021/01/04 06:56:39;;;;;;;1.50;1.42;;;3.80;99.90;;;;;;5010499;28;20296;-79
2021/01/04 06:59:11;;;;;;;0.45;0.45;;;3.70;99.90;;;;;;4998847;28;20501;-78
2021/01/04 07:01:58;;;;;;;1.65;1.55;;;3.80;99.90;;;;;;4998459;28;20578;-79
2021/01/04 07:04:45;;;;;;;0.70;0.70;;;3.70;99.90;;;;;;5016951;28;20679;-80
2021/01/04 07:07:32;;;;;;;6.82;2.00;;;3.70;99.90;;;;;;5018865;28;20192;-77
2021/01/04 07:10:13;;;;;;;0.47;0.47;;;3.60;99.90;;;;;;5028652;28;20168;-77
2021/01/04 07:13:07;;;;;;;2.03;1.92;;;3.70;99.90;;;;;;5033268;28;20263;-77
2021/01/04 07:15:34;;;;;;;1.40;0.70;;;3.60;99.90;;;;;;5016239;28;20192;-79
2021/01/04 07:18:00;;;;;;;1.65;1.20;;;3.60;99.90;;;;;;5016112;28;20632;-77
2021/01/04 07:20:33;;;;;;;1.65;1.63;;;3.60;99.90;;;;;;5016067;28;20222;-78
2021/01/04 07:23:30;;;;;;;0.95;0.95;;;3.60;99.90;;;;;;5015968;28;20291;-77
2021/01/04 07:26:08;;;;;;;2.85;2.08;;;3.60;99.90;;;;;;5015731;28;20203;-79
2021/01/04 07:29:03;;;;;;;0.30;0.30;;;3.60;99.90;;;;;;5015879;28;20172;-77
2021/01/04 07:31:37;;;;;;;1.25;1.25;;;3.80;99.90;;;;;;5015757;28;20176;-77
2021/01/04 07:34:17;;;;;;;1.90;1.13;;;3.70;99.90;;;;;;5015559;28;20164;-81
2021/01/04 07:36:48;;;;;;;0.57;0.57;;;3.80;99.90;;;;;;5015213;28;20156;-80
2021/01/04 07:39:14;;;;;;;4.00;2.63;;;3.80;99.90;;;;;;5015543;28;20679;-75
2021/01/04 07:42:06;;;;;;;0.73;0.73;;;3.70;99.90;;;;;;5015160;28;20299;-75
2021/01/04 07:45:02;;;;;;;1.88;1.77;;;3.70;99.90;;;;;;5015509;28;20659;-77
2021/01/04 07:48:02;;;;;;;0.30;0.30;;;3.80;99.90;;;;;;5015432;28;20177;-78
2021/01/04 07:50:57;;;;;;;0.43;0.43;;;3.90;99.90;;;;;;5015046;28;20236;-75
2021/01/04 07:53:31;;;;;;;3.30;1.65;;;3.90;99.90;;;;;;5015448;28;20165;-80
2021/01/04 07:56:20;;;;;;;1.70;1.60;;;3.80;99.90;;;;;;4996653;28;20219;-75
2021/01/04 07:58:58;;;;;;;1.10;1.10;;;3.80;99.90;;;;;;5013927;28;20208;-76
2021/01/04 08:01:55;;;;;;;7.43;3.33;;;3.70;99.90;;;;;;5015994;28;20200;-77
2021/01/04 08:05:00;;;;;;;1.02;1.02;;;3.70;99.90;;;;;;5015679;28;20200;-77
2021/01/04 08:07:52;;;;;;;1.25;1.17;;;3.80;99.90;;;;;;5014493;28;20168;-79
2021/01/04 08:10:39;;;;;;;1.38;0.63;;;3.90;99.90;;;;;;5015284;28;20188;-77
2021/01/04 08:13:43;;;;;;;0.90;0.90;;;4.00;99.90;;;;;;5015143;28;20156;-79
2021/01/04 08:16:18;;;;;;;1.27;1.27;;;3.80;99.90;;;;;;5014884;28;20232;-79
2021/01/04 08:18:46;;;;;;;1.00;1.00;;;3.70;99.90;;;;;;5014395;28;20238;-79
2021/01/04 08:21:30;;;;;;;1.20;1.10;;;3.70;99.90;;;;;;5014623;28;20629;-76
2021/01/04 08:23:59;;;;;;;1.88;1.77;;;3.70;99.90;;;;;;5014593;28;20168;-77
2021/01/04 08:26:42;;;;;;;1.88;1.77;;;3.80;99.90;;;;;;5014735;28;20157;-79
2021/01/04 08:29:30;;;;;;;1.75;1.65;;;4.00;99.90;;;;;;5014445;28;20164;-80
2021/01/04 08:32:17;;;;;;;2.47;2.38;;;4.10;99.90;;;;;;5014648;28;20172;-75
2021/01/04 08:34:44;;;;;;;1.10;1.08;;;4.00;99.90;;;;;;5014314;28;20282;-77
2021/01/04 08:37:13;;;;;;;3.28;1.65;;;4.00;99.90;;;;;;5014270;28;20199;-75
2021/01/04 08:39:49;;;;;;;3.55;1.25;;;4.00;99.90;;;;;;5014310;28;20210;-76
2021/01/04 08:42:28;;;;;;;0.65;0.65;;;4.10;99.90;;;;;;5013081;28;20200;-77
2021/01/04 08:45:01;;;;;;;0.82;0.82;;;4.00;99.90;;;;;;5014138;28;20188;-76
2021/01/04 08:47:29;;;;;;;0.40;0.40;;;3.90;99.90;;;;;;5013084;28;20243;-78
2021/01/04 08:50:10;;;;;;;0.93;0.93;;;3.80;99.90;;;;;;5014029;28;20279;-78
2021/01/04 08:52:46;;;;;;;0.70;0.70;;;3.60;99.90;;;;;;5014142;28;20577;-78
2021/01/04 08:55:32;;;;;;;5.10;2.78;;;3.70;99.90;;;;;;5012879;28;20192;-78
2021/01/04 08:58:27;;;;;;;0.68;0.68;;;3.70;99.90;;;;;;5013013;28;20647;-76
2021/01/04 09:01:25;;;;;;;1.38;1.00;;;3.80;99.90;;;;;;5014511;28;20169;-77
2021/01/04 09:04:03;;;;;;;0.85;0.85;;;3.80;99.90;;;;;;5013995;28;20208;-77
2021/01/04 09:06:56;;;;;;;1.13;0.95;;;3.70;99.90;;;;;;5014021;28;20203;-75
2021/01/04 09:09:33;;;;;;;1.67;1.58;;;3.70;99.90;;;;;;5015602;28;20205;-82
2021/01/04 09:12:06;;;;;;;2.38;1.08;;;3.80;99.90;;;;;;5014306;28;20199;-83
2021/01/04 09:14:45;;;;;;;2.28;1.58;;;3.90;99.90;;;;;;5014466;28;20728;-85
2021/01/04 09:17:30;;;;;;;7.32;1.67;;;3.80;99.90;;;;;;5012787;28;20175;-83
2021/01/04 09:20:14;;;;;;;1.50;1.40;;;3.70;99.90;;;;;;5013493;28;20275;-81
2021/01/04 09:22:40;;;;;;;1.73;1.63;;;3.70;99.90;;;;;;5013873;28;20205;-81
2021/01/04 09:25:43;;;;;;;3.85;2.08;;;3.90;99.90;;;;;;5014039;28;20188;-80
2021/01/04 09:28:09;;;;;;;1.40;1.33;;;3.80;99.90;;;;;;5012771;28;20678;-83
2021/01/04 09:30:35;;;;;;;0.85;0.75;;;3.80;99.90;;;;;;5013077;28;20180;-82
2021/01/04 09:33:05;;;;;;;1.85;1.85;;;3.90;99.90;;;;;;5012667;28;20173;-85
2021/01/04 09:35:31;;;;;;;3.22;2.03;;;4.00;99.90;;;;;;5013538;28;20239;-77
2021/01/04 09:38:05;;;;;;;1.35;1.05;;;4.00;99.90;;;;;;5013940;28;20165;-78
2021/01/04 09:40:31;;;;;;;2.17;2.03;;;3.90;99.90;;;;;;5014385;28;20159;-78
2021/01/04 09:43:09;;;;;;;0.75;0.75;;;4.00;99.90;;;;;;5018718;28;20207;-77
2021/01/04 09:45:36;;;;;;;5.85;3.03;;;4.00;99.90;;;;;;5022420;28;20272;-78
2021/01/04 09:48:05;;;;;;;0.70;0.70;;;4.00;99.90;;;;;;5030881;28;20172;-77
2021/01/04 09:50:36;;;;;;;1.60;1.50;;;4.00;99.90;;;;;;5018229;28;20258;-82
2021/01/04 09:53:25;;;;;;;1.20;1.00;;;4.00;99.90;;;;;;5014879;28;20173;-80
2021/01/04 09:55:58;;;;;;;2.63;2.20;;;4.10;99.90;;;;;;5014418;28;20218;-82
2021/01/04 09:58:24;;;;;;;1.48;1.38;;;4.00;99.90;;;;;;5015340;28;20191;-85
2021/01/04 10:00:49;;;;;;;1.88;1.77;;;4.10;99.90;;;;;;5014694;28;20176;-76
2021/01/04 10:03:22;;;;;;;0.52;0.52;;;4.20;99.90;;;;;;5013782;28;20196;-77
2021/01/04 10:05:53;;;;;;;1.17;1.17;;;4.00;99.90;;;;;;5013511;28;20254;-77
2021/01/04 10:08:24;;;;;;;1.88;1.77;;;4.00;99.90;;;;;;5013378;28;20180;-78
2021/01/04 10:10:55;;;;;;;0.70;0.70;;;4.20;99.90;;;;;;5013447;28;20175;-77
2021/01/04 10:13:23;;;;;;;1.42;0.95;;;4.20;99.90;;;;;;5007740;28;20176;-78
2021/01/04 10:15:54;;;;;;;1.80;1.70;;;4.20;99.90;;;;;;5007884;28;20544;-75
2021/01/04 10:18:37;;;;;;;2.28;1.40;;;4.10;99.90;;;;;;5011434;28;20168;-75
2021/01/04 10:21:05;;;;;;;1.02;1.02;;;4.10;99.90;;;;;;5012017;28;20675;-74
2021/01/04 10:23:37;;;;;;;1.35;0.95;;;4.20;99.90;;;;;;5011437;28;20173;-78
2021/01/04 10:26:07;;;;;;;9.05;3.10;;;4.20;99.90;;;;;;5011606;28;20211;-77
2021/01/04 10:28:37;;;;;;;1.85;1.75;;;4.20;99.90;;;;;;5011967;28;20188;-78
2021/01/04 10:31:09;;;;;;;2.42;2.22;;;4.30;99.90;;;;;;5014403;28;20169;-76
2021/01/04 10:33:38;;;;;;;1.55;1.45;;;4.40;99.90;;;;;;5015768;28;20279;-78
2021/01/04 10:36:24;;;;;;;2.83;2.58;;;4.30;99.90;;;;;;5016229;28;20215;-77
2021/01/04 10:39:01;;;;;;;2.05;1.52;;;4.30;99.90;;;;;;5015362;28;20191;-75
2021/01/04 10:41:31;;;;;;;0.77;0.77;;;4.20;99.90;;;;;;5015831;28;20664;-76
2021/01/04 10:44:25;;;;;;;1.08;1.08;;;4.20;99.90;;;;;;5015003;28;20267;-76
2021/01/04 10:47:06;;;;;;;0.55;0.55;;;4.20;99.90;;;;;;5016453;28;20195;-75
2021/01/04 10:49:34;;;;;;;1.75;1.65;;;4.00;99.90;;;;;;5015787;28;20680;-75
2021/01/04 10:52:02;;;;;;;1.38;1.38;;;4.00;99.90;;;;;;5016837;28;20173;-78
2021/01/04 10:54:54;;;;;;;5.13;2.03;;;4.10;99.90;;;;;;5016057;28;20199;-78
2021/01/04 10:57:36;;;;;;;0.73;0.73;;;4.00;99.90;;;;;;5014169;28;20251;-74
2021/01/04 11:00:31;;;;;;;1.73;1.60;;;4.20;99.90;;;;;;4998767;28;20160;-77
2021/01/04 11:03:11;;;;;;;1.48;1.38;;;4.50;99.90;;;;;;5013816;28;20276;-75
2021/01/04 11:05:44;;;;;;;2.63;2.42;;;4.50;99.90;;;;;;5016843;28;20196;-79
2021/01/04 11:08:17;;;;;;;3.53;1.15;;;4.50;99.90;;;;;;5016806;28;20215;-77
2021/01/04 11:10:57;;;;;;;1.30;1.30;;;4.50;99.90;;;;;;5016103;28;20196;-77
2021/01/04 11:13:29;;;;;;;3.08;2.05;;;4.40;99.90;;;;;;5014854;28;20259;-76
2021/01/04 11:16:06;;;;;;;1.85;1.75;;;4.30;99.90;;;;;;5020441;28;20189;-76
2021/01/04 11:18:32;;;;;;;0.95;0.95;;;4.40;99.90;;;;;;5021540;28;20175;-78
2021/01/04 11:20:58;;;;;;;5.97;1.67;;;4.70;99.90;;;;;;5003638;28;20365;-76
2021/01/04 11:23:23;;;;;;;0.65;0.65;;;4.60;99.90;;;;;;5019647;28;20192;-76
2021/01/04 11:25:49;;;;;;;1.55;1.48;;;4.50;99.90;;;;;;5019261;28;20691;-81
2021/01/04 11:28:14;;;;;;;0.75;0.75;;;4.50;99.90;;;;;;5018902;28;20654;-77
2021/01/04 11:30:40;;;;;;;6.13;3.42;;;4.30;99.90;;;;;;5020114;28;20199;-77
2021/01/04 11:33:06;;;;;;;0.95;0.95;;;4.20;99.90;;;;;;5016380;28;20189;-77
2021/01/04 11:35:35;;;;;;;2.78;2.00;;;4.20;99.90;;;;;;5018557;28;20180;-77
2021/01/04 11:38:04;;;;;;;0.98;0.77;;;4.20;99.90;;;;;;5023590;28;20193;-77
2021/01/04 11:40:30;;;;;;;1.15;1.10;;;4.30;99.90;;;;;;5023600;28;20172;-77
2021/01/04 11:42:55;;;;;;;1.65;1.55;;;4.30;99.90;;;;;;5022286;28;20204;-76
2021/01/04 11:45:22;;;;;;;0.93;0.93;;;4.50;99.90;;;;;;5021175;28;20215;-77
2021/01/04 11:47:47;;;;;;;1.23;1.13;;;4.40;99.90;;;;;;5020403;28;20168;-76
2021/01/04 11:50:15;;;;;;;2.55;1.23;;;4.40;99.90;;;;;;5020804;28;20220;-76
2021/01/04 11:52:44;;;;;;;1.75;1.35;;;4.50;99.90;;;;;;5021127;28;20169;-77
2021/01/04 11:55:13;;;;;;;1.90;1.80;;;4.70;99.90;;;;;;5021677;28;20196;-77
2021/01/04 11:57:39;;;;;;;1.10;1.02;;;4.70;99.90;;;;;;5022544;28;20172;-77
2021/01/04 12:00:15;;;;;;;5.57;2.22;;;4.50;99.90;;;;;;5022634;28;20164;-76
2021/01/04 12:02:40;;;;;;;1.38;1.27;;;4.40;99.90;;;;;;5021433;28;20204;-78
2021/01/04 12:05:08;;;;;;;2.22;1.50;;;4.40;99.90;;;;;;5022044;28;20196;-78
2021/01/04 12:07:34;;;;;;;3.65;2.30;;;4.40;99.90;;;;;;5022059;28;20180;-78
2021/01/04 12:09:59;;;;;;;1.52;1.42;;;4.40;99.90;;;;;;5021854;28;20160;-77
2021/01/04 12:12:26;;;;;;;2.00;1.55;;;4.40;99.90;;;;;;5022392;28;20171;-78
2021/01/04 12:14:53;;;;;;;0.98;0.98;;;4.40;99.90;;;;;;5018681;28;20216;-79
2021/01/04 12:17:19;;;;;;;1.00;0.88;;;4.40;99.90;;;;;;5015155;28;20747;-77
2021/01/04 12:19:44;;;;;;;1.15;1.15;;;4.50;99.90;;;;;;5026834;28;20187;-76
2021/01/04 12:22:14;;;;;;;0.82;0.82;;;4.50;99.90;;;;;;5033496;28;20223;-75
2021/01/04 12:24:39;;;;;;;1.30;1.30;;;4.60;99.90;;;;;;5022882;28;20208;-76
2021/01/04 12:27:07;;;;;;;2.00;1.58;;;4.50;99.90;;;;;;5014965;28;20239;-75
2021/01/04 12:29:34;;;;;;;0.95;0.77;;;4.30;99.90;;;;;;5013473;28;20153;-73
2021/01/04 12:32:00;;;;;;;1.55;0.95;;;4.30;99.90;;;;;;5013033;28;20200;-76
2021/01/04 12:34:28;;;;;;;2.88;1.98;;;4.30;99.90;;;;;;5013011;28;20267;-78
2021/01/04 12:36:54;;;;;;;1.13;1.13;;;4.40;99.90;;;;;;5013278;28;20319;-77
2021/01/04 12:39:20;;;;;;;1.73;1.63;;;4.40;99.90;;;;;;5013041;28;20276;-76
2021/01/04 12:41:46;;;;;;;1.27;1.17;;;4.50;99.90;;;;;;5013211;28;20200;-77
2021/01/04 12:44:14;;;;;;;0.98;0.98;;;4.50;99.90;;;;;;5003218;28;20248;-76
2021/01/04 12:46:47;;;;;;;3.00;1.80;;;4.70;99.90;;;;;;4993440;28;20166;-78
2021/01/04 12:49:17;;;;;;;0.60;0.60;;;4.70;99.90;;;;;;4993416;28;20180;-77
2021/01/04 12:51:57;;;;;;;1.17;1.17;;;4.70;99.90;;;;;;4993459;28;20189;-77
2021/01/04 12:54:26;;;;;;;0.82;0.82;;;4.60;99.90;;;;;;4993377;28;20181;-78
2021/01/04 12:56:56;;;;;;;0.93;0.93;;;4.60;99.90;;;;;;4993502;28;20593;-76
2021/01/04 12:59:24;;;;;;;1.58;1.55;;;4.60;99.90;;;;;;4992931;28;20541;-78
2021/01/04 13:01:54;;;;;;;1.65;1.58;;;4.60;99.90;;;;;;4993474;28;20185;-77
2021/01/04 13:04:25;;;;;;;1.33;1.17;;;4.60;99.90;;;;;;4992965;28;20195;-77
2021/01/04 13:06:53;;;;;;;0.77;0.77;;;4.70;99.90;;;;;;4993437;28;20240;-79
2021/01/04 13:09:18;;;;;;;0.80;0.80;;;4.60;99.90;;;;;;4992899;28;20320;-79
2021/01/04 13:11:45;;;;;;;3.30;0.98;;;4.40;99.90;;;;;;4975624;28;20169;-79
2021/01/04 13:14:15;;;;;;;1.90;0.88;;;4.20;99.90;;;;;;4992847;28;20173;-78
2021/01/04 13:16:41;;;;;;;1.35;1.35;;;4.30;99.90;;;;;;4993203;28;20633;-79
2021/01/04 13:19:08;;;;;;;0.98;0.95;;;4.60;99.90;;;;;;4992914;28;20663;-77
2021/01/04 13:21:36;;;;;;;0.52;0.52;;;4.50;99.90;;;;;;4992763;28;20258;-82
2021/01/04 13:24:02;;;;;;;2.42;2.25;;;4.50;99.90;;;;;;4993014;28;20749;-79
2021/01/04 13:26:28;;;;;;;2.00;1.80;;;4.50;99.90;;;;;;4992706;28;20168;-79
2021/01/04 13:28:53;;;;;;;1.75;1.63;;;4.40;99.90;;;;;;4992811;28;20173;-79
2021/01/04 13:31:24;;;;;;;1.25;1.15;;;4.40;99.90;;;;;;4992684;28;20208;-75
2021/01/04 13:33:50;;;;;;;0.93;0.93;;;4.50;99.90;;;;;;4992697;28;20174;-77
2021/01/04 13:36:16;;;;;;;0.90;0.90;;;4.50;99.90;;;;;;4992303;28;20591;-77
2021/01/04 13:38:42;;;;;;;1.42;1.17;;;4.60;99.90;;;;;;4992445;28;20184;-77
2021/01/04 13:41:07;;;;;;;5.65;1.10;;;4.50;99.90;;;;;;4992668;28;20170;-76
2021/01/04 13:43:33;;;;;;;1.25;1.15;;;4.60;99.90;;;;;;4992700;28;20227;-77
2021/01/04 13:45:58;;;;;;;3.30;2.70;;;4.40;99.90;;;;;;4992075;28;20316;-77